createdAt,value
2023-09-02T00:01:15.092Z,17.54
2023-09-02T00:06:16.806Z,17.57
2023-09-02T00:11:18.408Z,17.58
2023-09-02T00:16:20.357Z,17.58
2023-09-02T00:21:22.087Z,17.52
2023-09-02T00:26:23.697Z,17.57
2023-09-02T00:31:25.595Z,17.65
2023-09-02T00:36:29.093Z,17.67
2023-09-02T00:41:35.584Z,17.74
2023-09-02T00:46:37.328Z,17.75
2023-09-02T00:51:39.530Z,17.74
2023-09-02T00:56:41.774Z,17.68
2023-09-02T01:01:46.549Z,17.68
2023-09-02T01:06:48.302Z,17.72
2023-09-02T01:11:50.224Z,17.73
2023-09-02T01:16:51.948Z,17.73
2023-09-02T01:22:20.281Z,17.63
2023-09-02T01:28:05.299Z,17.52
2023-09-02T01:33:10.206Z,17.65
2023-09-02T01:38:13.136Z,17.70
2023-09-02T01:43:22.234Z,17.69
2023-09-02T01:48:27.341Z,17.65
2023-09-02T01:53:30.377Z,17.62
2023-09-02T01:58:32.112Z,17.59
2023-09-02T02:03:52.591Z,17.56
2023-09-02T02:09:04.245Z,17.60
2023-09-02T02:14:07.332Z,17.59
2023-09-02T02:19:09.387Z,17.59
2023-09-02T02:24:11.049Z,17.52
2023-09-02T02:29:12.674Z,17.53
2023-09-02T02:34:15.677Z,17.57
2023-09-02T02:39:17.987Z,17.52
2023-09-02T02:44:19.835Z,17.48
2023-09-02T02:49:21.498Z,17.49
2023-09-02T02:54:23.477Z,17.46
2023-09-02T02:59:25.544Z,17.43
2023-09-02T03:04:27.885Z,17.41
2023-09-02T03:09:29.605Z,17.30
2023-09-02T03:14:31.384Z,17.32
2023-09-02T03:19:33.154Z,17.35
2023-09-02T03:24:34.848Z,17.36
2023-09-02T03:29:36.621Z,17.38
2023-09-02T03:34:38.889Z,17.44
2023-09-02T03:39:40.771Z,17.39
2023-09-02T03:44:42.551Z,17.39
2023-09-02T03:49:44.216Z,17.47
2023-09-02T03:54:46.650Z,17.46
2023-09-02T03:59:49.855Z,17.48
2023-09-02T04:04:52.435Z,17.51
2023-09-02T04:09:56.145Z,17.54
2023-09-02T04:14:57.912Z,17.49
2023-09-02T04:20:01.617Z,17.52
2023-09-02T04:25:06.182Z,17.43
2023-09-02T04:30:10.153Z,17.45
2023-09-02T04:35:11.908Z,17.47
2023-09-02T04:40:15.360Z,17.33
2023-09-02T04:45:18.211Z,17.34
2023-09-02T04:50:21.678Z,17.32
2023-09-02T04:55:25.971Z,17.29
2023-09-02T05:00:28.197Z,17.28
2023-09-02T05:05:31.083Z,17.21
2023-09-02T05:10:32.886Z,17.18
2023-09-02T05:15:34.645Z,17.12
2023-09-02T05:20:36.457Z,17.08
2023-09-02T05:25:38.157Z,17.09
2023-09-02T05:30:39.986Z,17.11
2023-09-02T05:35:41.640Z,17.12
2023-09-02T05:40:44.002Z,17.10
2023-09-02T05:45:45.802Z,17.18
2023-09-02T05:50:47.465Z,17.15
2023-09-02T05:55:56.126Z,17.15
2023-09-02T06:01:04.702Z,17.14
2023-09-02T06:06:13.264Z,17.20
2023-09-02T06:11:16.295Z,17.28
2023-09-02T06:16:18.021Z,17.27
2023-09-02T06:21:19.660Z,17.22
2023-09-02T06:26:21.303Z,17.24
2023-09-02T06:31:23.417Z,17.29
2023-09-02T06:36:25.298Z,17.36
2023-09-02T06:41:26.929Z,17.42
2023-09-02T06:46:29.222Z,17.37
2023-09-02T06:51:31.196Z,17.42
2023-09-02T06:56:34.417Z,17.47
2023-09-02T07:01:36.036Z,17.59
2023-09-02T07:06:37.728Z,17.61
2023-09-02T07:11:39.305Z,17.60
2023-09-02T07:16:42.149Z,17.65
2023-09-02T07:21:44.355Z,17.56
2023-09-02T07:26:48.469Z,17.46
2023-09-02T07:31:50.110Z,17.54
2023-09-02T07:36:51.872Z,17.52
2023-09-02T07:41:53.611Z,17.59
2023-09-02T07:46:55.324Z,17.57
2023-09-02T07:51:57.406Z,17.57
2023-09-02T07:56:59.217Z,17.60
2023-09-02T08:02:00.869Z,17.56
2023-09-02T08:07:02.494Z,17.57
2023-09-02T08:12:04.624Z,17.63
2023-09-02T08:17:06.744Z,17.63
2023-09-02T08:22:08.426Z,17.68
2023-09-02T08:27:10.219Z,17.67
2023-09-02T08:32:11.848Z,17.77
2023-09-02T08:37:13.938Z,17.81
2023-09-02T08:42:21.097Z,17.82
2023-09-02T08:47:28.679Z,17.91
2023-09-02T08:52:30.533Z,17.98
2023-09-02T08:57:33.830Z,18.03
2023-09-02T09:02:39.274Z,18.04
2023-09-02T09:07:41.992Z,17.99
2023-09-02T09:12:45.988Z,17.96
2023-09-02T09:17:48.715Z,17.99
2023-09-02T09:22:52.167Z,17.93
2023-09-02T09:27:53.962Z,17.89
2023-09-02T09:33:02.654Z,17.90
2023-09-02T09:38:06.064Z,18.05
2023-09-02T09:43:19.291Z,18.10
2023-09-02T09:48:21.423Z,18.11
2023-09-02T09:53:24.799Z,18.14
2023-09-02T09:58:26.453Z,18.10
2023-09-02T10:03:34.472Z,18.10
2023-09-02T10:08:55.623Z,18.17
2023-09-02T10:13:58.606Z,18.14
2023-09-02T10:19:00.986Z,18.22
2023-09-02T10:24:08.379Z,18.21
2023-09-02T10:29:13.898Z,18.36
2023-09-02T10:34:27.215Z,18.78
2023-09-02T10:40:05.775Z,19.22
2023-09-02T10:45:08.049Z,19.53
2023-09-02T10:50:11.029Z,19.78
2023-09-02T10:55:13.110Z,20.07
2023-09-02T11:00:18.299Z,20.43
2023-09-02T11:05:21.245Z,20.46
2023-09-02T11:10:43.406Z,20.43
2023-09-02T11:16:12.069Z,20.42
2023-09-02T11:21:47.771Z,20.28
2023-09-02T11:26:59.281Z,20.32
2023-09-02T11:32:03.281Z,20.15
2023-09-02T11:37:06.198Z,20.15
2023-09-02T11:42:08.682Z,20.30
2023-09-02T11:47:15.357Z,20.78
2023-09-02T11:52:22.168Z,20.83
2023-09-02T11:57:23.762Z,20.82
2023-09-02T12:02:26.566Z,20.97
2023-09-02T12:07:34.653Z,20.75
2023-09-02T12:12:43.975Z,20.56
2023-09-02T12:17:48.490Z,20.53
2023-09-02T12:22:50.763Z,20.54
2023-09-02T12:27:53.345Z,20.94
2023-09-02T12:32:58.506Z,20.73
2023-09-02T12:38:10.148Z,20.55
2023-09-02T12:43:23.233Z,20.80
2023-09-02T12:48:25.779Z,21.00
2023-09-02T12:53:28.145Z,21.15
2023-09-02T12:58:29.784Z,21.65
2023-09-02T13:03:31.510Z,21.24
2023-09-02T13:08:33.571Z,21.41
2023-09-02T13:13:35.680Z,21.68
2023-09-02T13:18:37.583Z,21.81
2023-09-02T13:23:39.659Z,21.92
2023-09-02T13:28:41.490Z,21.84
2023-09-02T13:33:43.790Z,21.96
2023-09-02T13:38:45.624Z,22.28
2023-09-02T13:43:47.393Z,22.41
2023-09-02T13:48:49.144Z,22.62
2023-09-02T13:53:50.864Z,22.71
2023-09-02T13:58:52.646Z,22.54
2023-09-02T14:03:54.488Z,22.59
2023-09-02T14:09:00.396Z,22.67
2023-09-02T14:14:02.131Z,22.48
2023-09-02T14:19:03.788Z,22.69
2023-09-02T14:24:05.915Z,22.66
2023-09-02T14:29:07.542Z,22.72
2023-09-02T14:34:12.407Z,22.74
2023-09-02T14:39:15.543Z,22.86
2023-09-02T14:44:20.594Z,22.87
2023-09-02T14:49:22.338Z,23.02
2023-09-02T14:54:24.074Z,22.90
2023-09-02T14:59:28.788Z,22.94
2023-09-02T15:04:31.248Z,22.69
2023-09-02T15:09:33.058Z,22.73
2023-09-02T15:14:35.669Z,22.48
2023-09-02T15:19:39.270Z,22.45
2023-09-02T15:24:40.962Z,22.49
2023-09-02T15:29:53.004Z,22.51
2023-09-02T15:34:56.881Z,22.47
2023-09-02T15:40:04.104Z,22.50
2023-09-02T15:45:06.475Z,22.56
2023-09-02T15:50:08.520Z,22.51
2023-09-02T15:55:10.221Z,22.45
2023-09-02T16:00:12.162Z,22.18
2023-09-02T16:05:16.563Z,21.97
2023-09-02T16:10:18.478Z,22.12
2023-09-02T16:15:22.593Z,22.09
2023-09-02T16:20:24.361Z,21.93
2023-09-02T16:25:26.113Z,22.01
2023-09-02T16:30:27.825Z,22.02
2023-09-02T16:35:29.527Z,21.89
2023-09-02T16:40:31.176Z,21.73
2023-09-02T16:45:32.839Z,21.64
2023-09-02T16:50:34.599Z,21.76
2023-09-02T16:55:36.295Z,21.61
2023-09-02T17:00:38.093Z,21.57
2023-09-02T17:05:45.051Z,21.56
2023-09-02T17:10:46.732Z,21.57
2023-09-02T17:15:48.894Z,21.50
2023-09-02T17:20:50.860Z,21.30
2023-09-02T17:25:52.599Z,21.33
2023-09-02T17:31:04.067Z,21.25
2023-09-02T17:36:06.458Z,21.13
2023-09-02T17:41:08.814Z,21.07
2023-09-02T17:46:10.536Z,21.11
2023-09-02T17:51:12.233Z,21.11
2023-09-02T17:56:13.968Z,21.05
2023-09-02T18:01:15.693Z,21.02
2023-09-02T18:06:17.439Z,20.91
2023-09-02T18:11:19.033Z,20.84
2023-09-02T18:16:20.679Z,20.73
2023-09-02T18:21:22.452Z,20.63
2023-09-02T18:26:24.254Z,20.47
2023-09-02T18:31:26.961Z,20.41
2023-09-02T18:36:28.657Z,20.31
2023-09-02T18:41:30.298Z,20.16
2023-09-02T18:46:32.237Z,20.11
2023-09-02T18:51:33.995Z,20.06
2023-09-02T18:56:37.676Z,19.99
2023-09-02T19:01:39.489Z,19.95
2023-09-02T19:06:43.378Z,19.92
2023-09-02T19:11:46.149Z,19.85
2023-09-02T19:16:47.838Z,19.72
2023-09-02T19:21:49.684Z,19.72
2023-09-02T19:26:51.532Z,19.71
2023-09-02T19:31:53.193Z,19.68
2023-09-02T19:36:54.841Z,19.59
2023-09-02T19:41:59.230Z,19.55
2023-09-02T19:47:01.013Z,19.52
2023-09-02T19:52:02.661Z,19.40
2023-09-02T19:57:04.504Z,19.27
2023-09-02T20:02:06.819Z,19.26
2023-09-02T20:07:08.580Z,19.27
2023-09-02T20:12:10.248Z,19.24
2023-09-02T20:17:12.121Z,19.18
2023-09-02T20:22:17.442Z,19.12
2023-09-02T20:27:19.836Z,19.04
2023-09-02T20:32:21.617Z,19.07
2023-09-02T20:37:23.486Z,18.85
2023-09-02T20:42:25.197Z,18.92
2023-09-02T20:47:26.881Z,18.96
2023-09-02T20:52:28.860Z,18.90
2023-09-02T20:57:30.615Z,18.93
2023-09-02T21:02:32.375Z,18.81
2023-09-02T21:07:34.229Z,18.73
2023-09-02T21:12:35.875Z,18.64
2023-09-02T21:17:37.608Z,18.64
2023-09-02T21:22:39.303Z,18.62
2023-09-02T21:27:40.917Z,18.59
2023-09-02T21:32:43.358Z,18.51
2023-09-02T21:37:46.528Z,18.50
2023-09-02T21:42:48.150Z,18.52
2023-09-02T21:47:49.796Z,18.52
2023-09-02T21:52:51.543Z,18.47
2023-09-02T21:57:53.222Z,18.42
2023-09-02T22:02:55.116Z,18.38
2023-09-02T22:07:56.861Z,18.33
2023-09-02T22:12:58.614Z,18.29
2023-09-02T22:18:00.354Z,18.25
2023-09-02T22:23:02.094Z,18.22
2023-09-02T22:28:03.884Z,18.22
2023-09-02T22:33:05.941Z,18.15
2023-09-02T22:38:10.316Z,18.11
2023-09-02T22:43:12.439Z,18.02
2023-09-02T22:48:17.099Z,17.98
2023-09-02T22:53:20.170Z,17.97
2023-09-02T22:58:22.283Z,17.92
2023-09-02T23:03:23.987Z,17.86
2023-09-02T23:08:25.633Z,17.80
2023-09-02T23:13:28.079Z,17.77
2023-09-02T23:18:29.823Z,17.78
2023-09-02T23:23:31.493Z,17.76
2023-09-02T23:28:33.121Z,17.77
2023-09-02T23:33:34.874Z,17.75
2023-09-02T23:38:36.633Z,17.67
2023-09-02T23:43:38.389Z,17.60
2023-09-02T23:48:42.289Z,17.51
2023-09-02T23:53:45.262Z,17.39
2023-09-02T23:58:46.883Z,17.35
